Terminal Aerodrome Forecast
Issued by NWS Goodland, KS

Home | Current Version | Previous Version | Text Only | Print | Product List | Glossary On
Versions: 1 2 3 4 5 6 7 8 9 10 11 12 13 14 15 16 17
000
FTUS43 KGLD 041132
TAFGLD
TAF
KGLD 041132Z 0412/0512 03006KT P6SM -SHRA BKN070
      TEMPO 0416/0418 SCT025 BKN050
     FM041800 05010KT P6SM VCTS OVC020CB
     FM050500 08007KT 6SM -SHRA BR OVC009
     FM051100 10008KT 3SM -SHRA BR OVC005=

USA.gov is the U.S. government's official web portal to all federal, state and local government web resources and services.